Time;durP1;ratioP1;P1;durP2;ratioP2;P2;SDS_P1;SDS_P2;PMS_P1;PMS_P2;Temp;Humidity;BMP_temperature;BMP_pressure;BME280_temperature;BME280_humidity;BME280_pressure;Samples;Min_cycle;Max_cycle;Signal;HPM_P1;HPM_P2
2023/03/04 00:03:14;;;;;;;41.30;18.00;;;;;;;1.86;100.00;100518.45;220783;1265;139979;-88
2023/03/04 00:08:14;;;;;;;39.20;16.90;;;;;;;1.88;100.00;100515.52;220352;1269;139313;-86
2023/03/04 00:13:15;;;;;;;41.10;19.60;;;;;;;1.88;100.00;100513.66;221009;1265;97943;-87
2023/03/04 00:18:16;;;;;;;40.10;20.10;;;;;;;1.87;100.00;100505.42;220457;1266;140187;-88
2023/03/04 00:23:17;;;;;;;36.70;15.70;;;;;;;1.89;100.00;100503.03;221042;1267;139669;-86
2023/03/04 00:28:17;;;;;;;38.60;17.70;;;;;;;1.91;100.00;100500.77;220391;1265;140117;-86
2023/03/04 00:33:18;;;;;;;36.00;15.60;;;;;;;1.91;100.00;100494.19;220991;1265;139269;-86
2023/03/04 00:38:18;;;;;;;36.70;17.30;;;;;;;1.92;100.00;100491.83;220423;1265;163279;-90
2023/03/04 00:43:19;;;;;;;38.50;16.70;;;;;;;1.92;100.00;100482.23;220916;1269;97862;-86
2023/03/04 00:48:19;;;;;;;33.90;15.60;;;;;;;1.93;100.00;100476.70;220394;1266;139275;-86
2023/03/04 00:53:22;;;;;;;38.30;16.60;;;;;;;1.95;100.00;100467.86;220859;1265;139695;-89
2023/03/04 00:58:23;;;;;;;32.40;15.10;;;;;;;1.97;100.00;100459.59;220328;1266;139809;-89
2023/03/04 01:03:25;;;;;;;35.10;16.60;;;;;;;1.99;100.00;100461.02;220805;1265;139381;-86
2023/03/04 01:08:26;;;;;;;29.80;14.70;;;;;;;2.01;100.00;100447.36;220354;1265;140310;-85
2023/03/04 01:13:26;;;;;;;32.60;15.80;;;;;;;2.02;100.00;100429.41;220985;1266;98007;-89
2023/03/04 01:18:27;;;;;;;32.00;16.10;;;;;;;2.03;100.00;100414.27;220446;1266;138867;-88
2023/03/04 01:23:27;;;;;;;35.10;16.80;;;;;;;2.04;100.00;100400.89;220900;1266;139077;-88
2023/03/04 01:28:27;;;;;;;32.00;14.70;;;;;;;2.05;100.00;100388.54;220289;1266;139764;-89
2023/03/04 01:33:28;;;;;;;30.10;14.60;;;;;;;2.06;100.00;100374.61;221374;1266;139076;-89
2023/03/04 01:38:29;;;;;;;29.70;14.10;;;;;;;2.06;100.00;100362.90;220607;1266;140263;-88
2023/03/04 01:43:30;;;;;;;29.20;13.90;;;;;;;2.06;100.00;100351.34;220981;1265;97967;-88
2023/03/04 01:48:35;;;;;;;31.30;15.10;;;;;;;2.06;100.00;100347.79;220411;1265;140683;-87
2023/03/04 01:53:36;;;;;;;28.10;13.80;;;;;;;2.06;100.00;100343.45;221161;1265;139419;-91
2023/03/04 01:58:37;;;;;;;28.30;12.30;;;;;;;2.07;100.00;100330.91;220281;1266;141466;-93
2023/03/04 02:03:38;;;;;;;29.80;14.90;;;;;;;2.06;100.00;100324.61;220785;1265;140467;-87
2023/03/04 02:08:39;;;;;;;30.40;13.10;;;;;;;2.06;100.00;100316.53;220381;1266;140258;-85
2023/03/04 02:13:39;;;;;;;32.80;15.70;;;;;;;2.06;100.00;100312.28;221011;1266;97920;-85
2023/03/04 02:18:40;;;;;;;26.60;13.50;;;;;;;2.06;100.00;100304.44;220354;1266;139465;-85
2023/03/04 02:23:48;;;;;;;25.10;12.00;;;;;;;2.06;100.00;100298.67;221003;1265;138877;-87
2023/03/04 02:28:51;;;;;;;28.90;12.50;;;;;;;2.06;100.00;100295.99;220391;1265;139359;-86
2023/03/04 02:33:58;;;;;;;29.50;13.60;;;;;;;2.06;100.00;100293.66;220822;1266;140513;-87
2023/03/04 02:39:10;;;;;;;24.40;11.70;;;;;;;2.07;100.00;100291.46;220329;1265;139679;-87
2023/03/04 02:44:23;;;;;;;29.00;13.00;;;;;;;2.08;100.00;100286.77;220895;1265;140186;-87
2023/03/04 02:49:26;;;;;;;29.90;12.60;;;;;;;2.08;100.00;100287.39;220336;1265;139075;-87
2023/03/04 02:54:34;;;;;;;24.40;12.00;;;;;;;2.09;100.00;100279.80;220827;1266;139042;-89
2023/03/04 02:59:37;;;;;;;26.70;12.10;;;;;;;2.09;100.00;100279.28;220264;1270;138952;-87
2023/03/04 03:04:39;;;;;;;25.90;11.10;;;;;;;2.10;100.00;100277.20;220823;1266;139168;-85
2023/03/04 03:09:40;;;;;;;27.50;12.40;;;;;;;2.10;100.00;100282.34;220288;1266;139637;-87
2023/03/04 03:14:49;;;;;;;22.40;10.60;;;;;;;2.11;100.00;100285.64;220813;1266;98019;-86
2023/03/04 03:19:50;;;;;;;25.90;11.00;;;;;;;2.11;100.00;100281.45;220288;1269;139313;-85
2023/03/04 03:24:52;;;;;;;25.00;11.90;;;;;;;2.10;100.00;100278.10;221871;1266;139176;-87
2023/03/04 03:29:53;;;;;;;22.80;11.30;;;;;;;2.10;100.00;100275.03;220241;1266;139228;-83
2023/03/04 03:34:59;;;;;;;25.40;11.50;;;;;;;2.10;100.00;100276.55;220864;1266;139394;-86
2023/03/04 03:39:59;;;;;;;24.40;11.20;;;;;;;2.10;100.00;100273.45;220186;1270;139456;-85
2023/03/04 03:45:00;;;;;;;23.50;10.70;;;;;;;2.11;100.00;100280.20;220952;1266;138999;-87
2023/03/04 03:50:06;;;;;;;24.60;11.40;;;;;;;2.11;100.00;100272.06;220296;1266;139189;-89
2023/03/04 03:55:13;;;;;;;24.10;11.00;;;;;;;2.11;100.00;100273.30;220774;1266;138899;-87
2023/03/04 04:00:23;;;;;;;28.50;10.40;;;;;;;2.11;100.00;100273.63;220208;1266;140050;-89
2023/03/04 04:05:24;;;;;;;25.70;11.60;;;;;;;2.09;100.00;100276.73;221215;1265;139819;-87
2023/03/04 04:10:24;;;;;;;24.50;11.90;;;;;;;2.11;100.00;100277.20;220198;1266;139197;-86
2023/03/04 04:15:25;;;;;;;25.60;11.20;;;;;;;2.11;100.00;100275.57;220878;1266;139147;-87
2023/03/04 04:20:25;;;;;;;27.90;11.30;;;;;;;2.12;100.00;100276.84;220256;1266;139444;-87
2023/03/04 04:25:26;;;;;;;34.90;12.80;;;;;;;2.12;100.00;100268.45;220994;1265;97943;-87
2023/03/04 04:30:27;;;;;;;25.30;10.80;;;;;;;2.13;100.00;100263.53;220312;1265;206587;-86
2023/03/04 04:35:27;;;;;;;28.30;11.50;;;;;;;2.11;100.00;100261.61;220908;1266;139191;-82
2023/03/04 04:40:27;;;;;;;22.40;10.00;;;;;;;2.12;100.00;100257.14;220469;1265;139472;-86
2023/03/04 04:45:28;;;;;;;25.40;10.20;;;;;;;2.12;100.00;100252.52;220834;1266;139321;-87
2023/03/04 04:50:28;;;;;;;25.20;11.40;;;;;;;2.13;100.00;100244.20;220320;1266;139392;-87
2023/03/04 04:55:29;;;;;;;27.10;10.90;;;;;;;2.13;100.00;100237.27;220983;1266;97987;-81
2023/03/04 05:00:29;;;;;;;25.60;10.50;;;;;;;2.13;100.00;100228.11;220409;1266;139664;-84
2023/03/04 05:05:29;;;;;;;24.70;9.90;;;;;;;2.13;100.00;100222.36;220905;1265;139752;-88
2023/03/04 05:10:30;;;;;;;22.50;9.80;;;;;;;2.13;100.00;100212.75;220859;1266;139886;-87
2023/03/04 05:15:30;;;;;;;27.20;10.40;;;;;;;2.13;100.00;100211.34;221668;1266;253088;-87
2023/03/04 05:20:31;;;;;;;30.40;11.00;;;;;;;2.13;100.00;100207.02;220404;1269;140027;-88
2023/03/04 05:25:31;;;;;;;23.90;9.10;;;;;;;2.13;100.00;100210.89;220845;1266;97967;-86
2023/03/04 05:30:31;;;;;;;30.40;9.80;;;;;;;2.13;100.00;100200.81;220311;1266;139448;-83
2023/03/04 05:35:32;;;;;;;30.90;11.00;;;;;;;2.13;100.00;100204.54;220831;1266;139210;-85
2023/03/04 05:40:33;;;;;;;23.80;10.40;;;;;;;2.14;100.00;100206.80;220440;1266;139912;-83
2023/03/04 05:45:33;;;;;;;25.90;9.00;;;;;;;2.14;100.00;100206.20;221703;1265;139034;-84
2023/03/04 05:50:34;;;;;;;22.60;9.40;;;;;;;2.14;100.00;100205.38;223252;1265;139425;-86
2023/03/04 05:55:34;;;;;;;26.60;10.30;;;;;;;2.17;100.00;100206.09;221523;1266;98018;-83
2023/03/04 06:00:35;;;;;;;27.20;10.10;;;;;;;2.17;100.00;100205.64;220251;1266;139044;-88
2023/03/04 06:05:36;;;;;;;22.90;10.50;;;;;;;2.19;100.00;100200.52;220858;1266;138969;-86
2023/03/04 06:10:38;;;;;;;25.30;8.80;;;;;;;2.21;100.00;100199.52;220341;1266;139632;-86
2023/03/04 06:15:39;;;;;;;25.20;9.00;;;;;;;2.22;100.00;100193.73;220946;1269;139606;-85
2023/03/04 06:20:40;;;;;;;26.30;10.80;;;;;;;2.23;100.00;100196.73;220640;1266;139173;-86
2023/03/04 06:25:40;;;;;;;24.50;9.20;;;;;;;2.25;100.00;100190.49;221033;1266;97892;-85
2023/03/04 06:30:40;;;;;;;27.90;9.10;;;;;;;2.28;100.00;100196.83;220632;1266;139505;-87
2023/03/04 06:35:41;;;;;;;24.60;8.50;;;;;;;2.32;100.00;100200.39;220820;1266;138722;-85
2023/03/04 06:40:44;;;;;;;22.40;8.40;;;;;;;2.35;100.00;100200.64;220380;1266;139694;-89
2023/03/04 06:45:45;;;;;;;26.30;8.70;;;;;;;2.40;100.00;100202.59;220789;1269;139257;-85
2023/03/04 06:50:45;;;;;;;27.40;9.70;;;;;;;2.44;100.00;100203.20;220378;1266;139829;-86
2023/03/04 06:55:47;;;;;;;20.50;7.70;;;;;;;2.47;100.00;100201.70;221015;1266;97889;-84
2023/03/04 07:00:47;;;;;;;21.40;8.90;;;;;;;2.51;100.00;100192.27;221044;1269;138821;-88
2023/03/04 07:05:48;;;;;;;27.00;9.30;;;;;;;2.58;100.00;100190.89;220869;1265;138778;-85
2023/03/04 07:10:48;;;;;;;20.60;7.80;;;;;;;2.62;100.00;100190.48;220363;1266;139167;-88
2023/03/04 07:15:48;;;;;;;26.60;7.80;;;;;;;2.67;100.00;100196.05;220903;1266;138971;-86
2023/03/04 07:20:52;;;;;;;32.30;8.70;;;;;;;2.72;100.00;100200.43;220512;1266;139602;-91
2023/03/04 07:25:53;;;;;;;23.90;7.90;;;;;;;2.76;100.00;100194.45;221038;1266;97853;-92
2023/03/04 07:30:55;;;;;;;25.90;7.60;;;;;;;2.80;100.00;100194.77;220439;1266;138820;-88
2023/03/04 07:35:59;;;;;;;24.20;7.90;;;;;;;2.85;100.00;100194.58;220352;1269;139212;-89
2023/03/04 07:40:59;;;;;;;23.10;7.40;;;;;;;2.91;100.00;100192.71;220871;1269;139751;-87
2023/03/04 07:46:01;;;;;;;27.10;8.40;;;;;;;2.95;100.00;100184.30;220411;1266;139538;-86
2023/03/04 07:51:09;;;;;;;20.10;7.30;;;;;;;3.00;100.00;100189.16;220834;1270;137692;-91
2023/03/04 07:56:12;;;;;;;20.60;7.40;;;;;;;3.05;100.00;100185.21;220417;1266;139347;-87
2023/03/04 08:01:20;;;;;;;22.40;7.30;;;;;;;3.09;100.00;100184.98;220791;1266;139668;-90
2023/03/04 08:06:39;;;;;;;22.70;7.00;;;;;;;3.14;100.00;100176.30;220058;1266;139127;-90
2023/03/04 08:11:40;;;;;;;24.50;8.20;;;;;;;3.19;100.00;100178.20;220793;1266;139022;-88
2023/03/04 08:16:40;;;;;;;24.50;7.20;;;;;;;3.24;100.00;100179.09;220227;1266;139511;-90
2023/03/04 08:21:41;;;;;;;25.80;6.80;;;;;;;3.30;100.00;100172.83;220756;1269;138945;-91
2023/03/04 08:26:45;;;;;;;21.10;6.90;;;;;;;3.35;100.00;100173.58;220270;1270;139126;-89
2023/03/04 08:31:47;;;;;;;25.40;8.90;;;;;;;3.40;100.00;100175.93;220924;1270;108637;-93
2023/03/04 08:36:47;;;;;;;16.60;6.30;;;;;;;3.44;100.00;100168.84;220374;1266;139113;-94
2023/03/04 08:41:48;;;;;;;23.90;7.50;;;;;;;3.50;100.00;100168.81;220889;1266;138686;-92
2023/03/04 08:46:49;;;;;;;20.80;7.30;;;;;;;3.56;100.00;100173.23;221204;1266;139223;-90
2023/03/04 08:51:49;;;;;;;28.60;8.20;;;;;;;3.60;100.00;100164.52;221398;1266;138838;-87
2023/03/04 08:56:50;;;;;;;14.00;5.70;;;;;;;3.66;100.00;100165.88;220416;1267;139530;-92
2023/03/04 09:01:50;;;;;;;26.20;7.70;;;;;;;3.71;100.00;100165.83;221008;1270;108427;-88
2023/03/04 09:06:50;;;;;;;20.10;6.60;;;;;;;3.78;100.00;100160.14;220476;1266;141791;-90
2023/03/04 09:11:51;;;;;;;17.00;5.30;;;;;;;3.83;100.00;100161.27;220918;1267;138977;-93
2023/03/04 09:16:51;;;;;;;18.20;6.20;;;;;;;3.90;100.00;100162.89;220745;1266;139271;-90
2023/03/04 09:21:54;;;;;;;18.90;6.30;;;;;;;3.99;100.00;100163.43;220872;1269;139450;-88
2023/03/04 09:26:54;;;;;;;20.40;6.10;;;;;;;4.06;100.00;100163.19;220207;1270;140202;-88
2023/03/04 09:31:55;;;;;;;16.80;5.50;;;;;;;4.13;100.00;100157.27;220988;1269;98040;-91
2023/03/04 09:36:55;;;;;;;17.20;6.40;;;;;;;4.22;100.00;100155.84;220479;1269;139304;-91
2023/03/04 09:41:57;;;;;;;15.10;5.00;;;;;;;4.31;100.00;100149.90;221023;1266;139323;-88
2023/03/04 09:47:01;;;;;;;15.60;4.90;;;;;;;4.45;100.00;100147.69;220363;1266;139631;-91
2023/03/04 09:52:15;;;;;;;12.60;5.20;;;;;;;4.56;100.00;100144.83;220918;1266;138884;-93
2023/03/04 09:57:34;;;;;;;10.50;4.10;;;;;;;4.63;100.00;100143.42;220405;1267;139483;-88
2023/03/04 10:02:50;;;;;;;12.30;4.30;;;;;;;4.70;100.00;100140.75;220851;1270;140241;-91
2023/03/04 10:08:00;;;;;;;12.70;4.40;;;;;;;4.81;100.00;100136.26;220604;1267;138895;-91
2023/03/04 10:13:02;;;;;;;13.60;5.10;;;;;;;4.90;100.00;100133.79;220838;1269;139103;-87
2023/03/04 10:18:14;;;;;;;14.50;5.80;;;;;;;4.98;100.00;100136.27;220461;1266;139287;-89
2023/03/04 10:23:20;;;;;;;9.80;3.80;;;;;;;5.01;100.00;100123.27;220726;1271;140323;-88
2023/03/04 10:28:29;;;;;;;13.00;5.30;;;;;;;5.11;100.00;100117.09;220419;1269;139902;-81
2023/03/04 10:33:40;;;;;;;11.80;3.70;;;;;;;5.16;100.00;100112.21;221267;1267;137852;-94
2023/03/04 10:38:41;;;;;;;11.70;4.10;;;;;;;5.23;100.00;100112.73;220834;1266;139631;-87
2023/03/04 10:43:45;;;;;;;11.40;4.10;;;;;;;5.31;100.00;100113.88;221022;1267;97943;-85
2023/03/04 10:48:58;;;;;;;12.80;4.00;;;;;;;5.37;100.00;100113.20;220482;1267;139578;-95
2023/03/04 10:54:15;;;;;;;10.10;4.20;;;;;;;5.39;100.00;100101.32;221646;1269;138896;-88
2023/03/04 10:59:39;;;;;;;11.40;4.40;;;;;;;5.38;100.00;100099.27;220306;1270;140046;-87
2023/03/04 11:04:39;;;;;;;11.50;4.80;;;;;;;5.48;100.00;100091.34;220658;1265;139293;-87
2023/03/04 11:09:43;;;;;;;10.80;4.00;;;;;;;5.71;100.00;100088.96;220721;1267;139632;-88
2023/03/04 11:14:48;;;;;;;11.70;4.40;;;;;;;5.88;100.00;100090.34;220618;1267;139546;-89
2023/03/04 11:20:04;;;;;;;12.20;4.10;;;;;;;6.04;100.00;100092.08;220351;1267;139823;-85
2023/03/04 11:25:20;;;;;;;11.70;4.20;;;;;;;6.15;100.00;100088.03;221220;1269;139052;-88
2023/03/04 11:30:38;;;;;;;9.60;3.40;;;;;;;6.19;100.00;100086.17;220408;1268;139956;-88
2023/03/04 11:35:58;;;;;;;13.10;4.70;;;;;;;6.27;100.00;100089.79;220958;1266;139254;-89
2023/03/04 11:41:15;;;;;;;13.30;4.70;;;;;;;6.49;100.00;100083.41;220801;1266;138664;-88
2023/03/04 11:46:34;;;;;;;12.10;4.20;;;;;;;6.60;100.00;100084.58;220614;1267;139178;-91
2023/03/04 11:52:16;;;;;;;12.50;5.00;;;;;;;6.65;100.00;100085.95;220904;1267;141486;-87
2023/03/04 11:57:31;;;;;;;13.50;5.40;;;;;;;6.65;99.93;100086.95;220288;1269;139631;-88
2023/03/04 12:02:57;;;;;;;10.00;4.00;;;;;;;6.69;99.90;100082.10;221137;1269;104197;-94
2023/03/04 12:08:06;;;;;;;12.00;4.60;;;;;;;6.91;99.80;100081.16;220208;1266;139080;-92
2023/03/04 12:13:29;;;;;;;14.20;4.80;;;;;;;7.09;98.80;100078.31;221113;1267;139540;-93
2023/03/04 12:18:57;;;;;;;11.30;4.40;;;;;;;7.17;98.17;100070.17;220434;1266;138985;-90
2023/03/04 12:24:14;;;;;;;11.50;4.00;;;;;;;7.25;96.17;100071.35;221447;1267;139207;-85
2023/03/04 12:29:28;;;;;;;14.30;4.80;;;;;;;7.27;95.87;100073.58;220725;1269;138924;-88
2023/03/04 12:34:37;;;;;;;10.70;3.60;;;;;;;7.24;95.19;100078.28;221161;1268;139395;-95
2023/03/04 12:40:23;;;;;;;11.70;3.80;;;;;;;7.14;93.69;100081.23;221153;1267;141302;-92
2023/03/04 12:45:38;;;;;;;11.90;4.30;;;;;;;6.99;93.37;100079.91;221287;1267;139687;-94
2023/03/04 12:50:52;;;;;;;12.00;4.40;;;;;;;6.88;93.20;100086.64;221587;1269;139770;-93
2023/03/04 12:55:58;;;;;;;5.30;1.90;;;;;;;6.73;93.57;100117.20;221103;1269;105608;-91
2023/03/04 13:01:14;;;;;;;6.30;1.30;;;;;;;6.43;94.50;100132.79;220301;1266;138572;-91
2023/03/04 13:06:44;;;;;;;3.80;1.40;;;;;;;6.13;96.20;100132.56;221113;1267;138664;-91
2023/03/04 13:12:01;;;;;;;6.10;1.90;;;;;;;6.01;97.25;100135.94;221276;1267;138526;-92
2023/03/04 13:22:53;;;;;;;8.20;2.30;;;;;;;5.85;97.73;100131.39;220334;1268;138694;-91
2023/03/04 13:28:01;;;;;;;7.20;2.80;;;;;;;5.80;97.98;100134.16;219489;1265;138965;-91
2023/03/04 13:33:12;;;;;;;10.90;2.90;;;;;;;5.83;98.15;100138.11;219952;1268;138566;-90
2023/03/04 13:38:32;;;;;;;8.00;2.70;;;;;;;5.74;97.02;100142.71;219848;1268;139389;-88
2023/03/04 13:43:40;;;;;;;12.60;4.40;;;;;;;5.64;96.96;100147.05;220151;1267;138274;-90
2023/03/04 13:48:42;;;;;;;9.80;2.90;;;;;;;5.60;97.40;100151.30;219110;1266;138882;-90
2023/03/04 13:53:53;;;;;;;8.50;3.30;;;;;;;5.58;97.84;100159.83;219689;1268;139071;-89
2023/03/04 13:59:19;;;;;;;10.20;3.00;;;;;;;5.47;98.00;100157.06;219099;1266;138831;-89
2023/03/04 14:04:34;;;;;;;8.60;3.70;;;;;;;5.43;98.38;100159.52;219569;1266;138610;-91
2023/03/04 14:09:34;;;;;;;8.60;3.60;;;;;;;5.42;98.62;100155.20;219339;1270;138604;-89
2023/03/04 14:14:46;;;;;;;10.50;3.10;;;;;;;5.38;98.20;100156.64;219841;1266;97924;-88
2023/03/04 14:19:49;;;;;;;13.30;3.40;;;;;;;5.33;97.51;100154.72;219417;1269;139367;-86
2023/03/04 14:25:21;;;;;;;12.70;2.50;;;;;;;5.32;96.95;100157.88;219610;1270;138794;-91
2023/03/04 14:30:27;;;;;;;21.40;2.80;;;;;;;5.23;95.83;100161.36;220049;1270;139053;-89
2023/03/04 14:35:29;;;;;;;6.40;1.80;;;;;;;5.21;95.86;100158.91;220063;1267;138755;-88
2023/03/04 14:40:40;;;;;;;6.70;2.10;;;;;;;5.14;95.07;100154.59;218825;1265;139428;-89
2023/03/04 14:45:42;;;;;;;10.80;4.20;;;;;;;5.12;95.63;100160.69;219427;1270;139288;-90
2023/03/04 14:50:53;;;;;;;14.30;4.50;;;;;;;5.11;95.62;100160.09;219171;1267;139411;-89
2023/03/04 14:56:05;;;;;;;10.50;3.90;;;;;;;5.10;95.68;100166.45;219779;1269;98007;-86
2023/03/04 15:01:05;;;;;;;8.30;3.30;;;;;;;5.05;95.25;100165.92;219031;1270;139285;-89
2023/03/04 15:06:21;;;;;;;11.60;4.30;;;;;;;4.97;95.00;100164.05;219096;1267;138666;-88
2023/03/04 15:11:28;;;;;;;8.30;2.90;;;;;;;4.85;94.14;100165.41;219631;1267;139520;-89
2023/03/04 15:16:53;;;;;;;12.40;2.90;;;;;;;4.68;93.83;100163.44;219307;1267;140028;-89
2023/03/04 15:22:05;;;;;;;8.40;3.00;;;;;;;4.51;93.89;100168.90;219906;1267;139735;-86
2023/03/04 15:27:10;;;;;;;8.00;2.70;;;;;;;4.39;94.45;100172.42;220164;1267;139303;-89
2023/03/04 15:32:11;;;;;;;12.60;5.40;;;;;;;4.25;94.55;100173.14;220570;1270;97953;-89
2023/03/04 15:37:18;;;;;;;9.90;4.30;;;;;;;4.14;94.99;100167.09;219485;1269;139050;-86
2023/03/04 15:42:19;;;;;;;8.60;3.60;;;;;;;4.02;94.75;100170.91;219650;1270;138471;-88
2023/03/04 15:47:20;;;;;;;12.00;3.60;;;;;;;3.90;94.89;100174.24;219389;1267;138689;-87
2023/03/04 15:52:21;;;;;;;11.30;4.30;;;;;;;3.80;95.00;100179.04;219826;1267;138843;-88
2023/03/04 15:57:24;;;;;;;13.40;4.20;;;;;;;3.71;95.16;100187.34;219321;1266;139012;-88
2023/03/04 16:02:26;;;;;;;14.10;5.20;;;;;;;3.58;95.09;100187.35;219878;1269;97860;-88
2023/03/04 16:07:29;;;;;;;13.10;5.30;;;;;;;3.44;95.03;100191.06;219265;1270;138868;-89
2023/03/04 16:12:29;;;;;;;11.30;3.60;;;;;;;3.31;95.04;100191.05;219778;1267;138845;-87
2023/03/04 16:17:30;;;;;;;11.90;4.40;;;;;;;3.18;94.62;100201.34;219854;1267;138831;-88
2023/03/04 16:22:30;;;;;;;11.40;4.10;;;;;;;3.07;94.23;100207.52;219874;1267;139422;-88
2023/03/04 16:27:31;;;;;;;15.60;6.50;;;;;;;2.97;94.05;100208.91;219067;1267;139675;-88
2023/03/04 16:32:31;;;;;;;17.10;6.90;;;;;;;2.84;93.58;100215.82;219876;1266;100581;-88
2023/03/04 16:37:32;;;;;;;12.20;5.10;;;;;;;2.73;93.78;100224.09;219303;1265;138930;-88
2023/03/04 16:42:32;;;;;;;10.30;3.90;;;;;;;2.59;93.23;100232.39;219735;1267;138847;-89
2023/03/04 16:47:33;;;;;;;12.20;3.90;;;;;;;2.45;93.80;100233.68;219227;1270;138881;-88
2023/03/04 16:52:33;;;;;;;14.70;5.20;;;;;;;2.29;92.79;100244.97;219797;1267;139467;-89
2023/03/04 16:57:34;;;;;;;19.10;7.30;;;;;;;2.15;93.14;100254.96;219266;1270;138842;-88
2023/03/04 17:02:34;;;;;;;16.40;6.10;;;;;;;2.03;93.50;100261.10;220287;1266;97951;-88
2023/03/04 17:07:35;;;;;;;17.70;5.60;;;;;;;1.92;93.39;100270.95;219688;1266;138473;-88
2023/03/04 17:12:35;;;;;;;17.10;6.40;;;;;;;1.80;92.75;100277.31;219971;1265;138731;-89
2023/03/04 17:17:36;;;;;;;17.60;7.10;;;;;;;1.66;93.52;100289.44;219568;1269;139042;-88
2023/03/04 17:22:36;;;;;;;18.80;6.30;;;;;;;1.54;94.03;100292.92;219946;1265;138704;-88
2023/03/04 17:27:37;;;;;;;23.20;8.50;;;;;;;1.41;94.10;100298.90;219376;1266;138655;-89
2023/03/04 17:32:38;;;;;;;20.70;8.80;;;;;;;1.25;93.77;100298.14;219998;1269;98041;-88
2023/03/04 17:37:40;;;;;;;17.10;7.40;;;;;;;1.12;93.99;100307.11;219379;1269;138897;-89
2023/03/04 17:42:42;;;;;;;17.40;7.00;;;;;;;1.00;94.26;100309.86;219839;1267;138673;-89
2023/03/04 17:47:42;;;;;;;17.70;6.90;;;;;;;0.89;94.04;100319.14;219403;1265;138780;-88
2023/03/04 17:52:42;;;;;;;19.80;7.10;;;;;;;0.75;92.61;100322.05;220022;1267;138774;-88
2023/03/04 17:57:43;;;;;;;14.90;6.80;;;;;;;0.64;92.11;100334.31;219290;1266;138935;-88
2023/03/04 18:02:43;;;;;;;23.90;9.50;;;;;;;0.54;90.98;100341.33;220513;1267;97993;-87
2023/03/04 18:07:43;;;;;;;30.60;11.60;;;;;;;0.44;90.62;100346.54;219645;1267;140931;-87
2023/03/04 18:12:46;;;;;;;33.20;14.90;;;;;;;0.33;90.83;100348.11;219913;1267;138992;-88
2023/03/04 18:17:47;;;;;;;31.50;12.30;;;;;;;0.23;90.19;100346.60;219187;1265;139318;-88
2023/03/04 18:22:47;;;;;;;20.80;9.10;;;;;;;0.10;89.96;100350.17;219817;1267;138856;-88
2023/03/04 18:27:48;;;;;;;21.60;8.30;;;;;;;-0.00;89.15;100351.27;219216;1265;139005;-86
2023/03/04 18:32:48;;;;;;;16.30;5.30;;;;;;;-0.10;89.13;100357.53;219669;1266;98872;-87
2023/03/04 18:37:49;;;;;;;19.50;7.10;;;;;;;-0.20;88.45;100361.24;219169;1265;139402;-87
2023/03/04 18:42:50;;;;;;;16.10;5.30;;;;;;;-0.29;89.63;100368.27;219828;1265;138815;-88
2023/03/04 18:47:51;;;;;;;18.30;5.80;;;;;;;-0.37;89.91;100367.48;218945;1266;140457;-88
2023/03/04 18:52:52;;;;;;;24.60;10.70;;;;;;;-0.48;89.74;100364.61;220346;1266;138999;-87
2023/03/04 18:57:56;;;;;;;24.40;11.20;;;;;;;-0.60;89.35;100368.29;218945;1269;139709;-87
2023/03/04 19:03:07;;;;;;;23.90;9.00;;;;;;;-0.69;90.63;100372.55;219598;1265;139126;-87
2023/03/04 19:08:08;;;;;;;20.20;8.70;;;;;;;-0.77;90.64;100371.65;219088;1265;138713;-86
2023/03/04 19:13:08;;;;;;;21.70;8.50;;;;;;;-0.87;90.49;100368.73;219531;1265;138895;-86
2023/03/04 19:18:08;;;;;;;20.50;8.30;;;;;;;-0.97;90.83;100371.05;218884;1266;139981;-86
2023/03/04 19:23:09;;;;;;;17.60;8.10;;;;;;;-1.08;90.57;100370.27;219428;1266;139194;-86
2023/03/04 19:28:10;;;;;;;23.80;9.20;;;;;;;-1.19;90.85;100372.11;218763;1271;139527;-86
2023/03/04 19:33:11;;;;;;;26.00;12.60;;;;;;;-1.30;91.20;100371.67;219588;1270;144179;-86
2023/03/04 19:38:12;;;;;;;26.70;11.00;;;;;;;-1.39;91.01;100376.84;219077;1266;139784;-86
2023/03/04 19:43:13;;;;;;;23.20;8.30;;;;;;;-1.49;91.20;100382.37;220222;1269;139210;-86
2023/03/04 19:48:14;;;;;;;40.20;19.80;;;;;;;-1.59;91.26;100379.86;218993;1266;139328;-86
2023/03/04 19:53:17;;;;;;;28.70;11.40;;;;;;;-1.67;91.21;100381.14;219581;1269;139204;-85
2023/03/04 19:58:18;;;;;;;30.60;11.50;;;;;;;-1.76;91.58;100381.63;219230;1265;139379;-85
2023/03/04 20:03:18;;;;;;;30.50;11.00;;;;;;;-1.84;91.78;100383.11;219681;1265;139432;-85
2023/03/04 20:08:19;;;;;;;30.60;13.00;;;;;;;-1.90;91.75;100384.25;219134;1266;138792;-83
2023/03/04 20:13:20;;;;;;;39.20;13.40;;;;;;;-2.00;91.83;100388.68;219396;1265;139050;-84
2023/03/04 20:18:21;;;;;;;37.80;15.40;;;;;;;-2.09;91.82;100390.81;218825;1266;139429;-84
2023/03/04 20:23:21;;;;;;;46.80;18.60;;;;;;;-2.16;92.33;100391.92;219588;1265;139480;-83
2023/03/04 20:28:23;;;;;;;57.70;22.70;;;;;;;-2.24;92.71;100388.92;219129;1265;139871;-85
2023/03/04 20:33:24;;;;;;;54.80;21.40;;;;;;;-2.31;92.34;100389.88;219941;1265;139163;-84
2023/03/04 20:38:24;;;;;;;52.30;22.00;;;;;;;-2.37;92.72;100386.70;219344;1265;138985;-84
2023/03/04 20:43:27;;;;;;;58.50;20.70;;;;;;;-2.45;92.61;100388.16;219776;1265;139623;-84
2023/03/04 20:48:27;;;;;;;48.50;19.70;;;;;;;-2.53;92.69;100385.30;219264;1267;140074;-83
2023/03/04 20:53:28;;;;;;;49.90;20.40;;;;;;;-2.58;93.01;100394.92;219705;1265;139367;-84
2023/03/04 20:58:28;;;;;;;47.90;19.40;;;;;;;-2.65;93.26;100391.63;219203;1269;139455;-83
2023/03/04 21:03:29;;;;;;;46.20;18.10;;;;;;;-2.72;93.27;100387.91;219659;1269;139966;-82
2023/03/04 21:08:30;;;;;;;44.70;16.40;;;;;;;-2.78;93.89;100382.77;219362;1269;141193;-82
2023/03/04 21:13:31;;;;;;;46.60;18.30;;;;;;;-2.85;93.90;100380.80;219799;1267;139340;-82
2023/03/04 21:18:32;;;;;;;46.20;20.00;;;;;;;-2.91;93.94;100379.65;219271;1265;139485;-82
2023/03/04 21:23:32;;;;;;;42.10;18.20;;;;;;;-2.96;94.06;100382.10;219909;1265;139349;-83
2023/03/04 21:28:32;;;;;;;47.00;19.00;;;;;;;-3.01;94.06;100374.41;219227;1265;139692;-83
2023/03/04 21:33:35;;;;;;;48.10;20.90;;;;;;;-3.07;94.31;100371.41;219716;1265;139290;-82
2023/03/04 21:38:36;;;;;;;53.60;19.60;;;;;;;-3.12;94.76;100369.86;219391;1269;139205;-82
2023/03/04 21:43:36;;;;;;;38.30;17.20;;;;;;;-3.18;95.07;100367.52;219616;1270;139022;-81
2023/03/04 21:48:46;;;;;;;46.10;18.80;;;;;;;-3.24;94.85;100367.98;219123;1266;139815;-81
2023/03/04 21:53:47;;;;;;;44.00;19.40;;;;;;;-3.30;95.00;100362.83;219656;1265;139321;-81
2023/03/04 21:58:47;;;;;;;57.90;23.80;;;;;;;-3.36;95.14;100355.41;219285;1265;139241;-81
2023/03/04 22:03:48;;;;;;;47.90;18.70;;;;;;;-3.39;95.58;100352.81;219452;1265;139509;-81
2023/03/04 22:08:51;;;;;;;60.50;24.80;;;;;;;-3.45;95.47;100350.85;219224;1265;140850;-81
2023/03/04 22:13:52;;;;;;;57.90;23.20;;;;;;;-3.53;95.25;100345.30;220314;1265;138956;-81
2023/03/04 22:18:53;;;;;;;54.50;20.50;;;;;;;-3.60;95.43;100345.38;219308;1265;139770;-81
2023/03/04 22:23:54;;;;;;;49.00;18.60;;;;;;;-3.64;95.75;100346.55;219525;1265;139378;-80
2023/03/04 22:28:55;;;;;;;55.00;20.60;;;;;;;-3.71;96.19;100341.52;219446;1265;139949;-80
2023/03/04 22:34:01;;;;;;;51.60;23.10;;;;;;;-3.77;96.14;100338.77;220233;1269;139174;-83
2023/03/04 22:39:04;;;;;;;52.40;20.00;;;;;;;-3.82;96.21;100337.91;219662;1266;139266;-83
2023/03/04 22:44:05;;;;;;;50.80;18.90;;;;;;;-3.87;96.60;100338.02;220551;1265;97908;-83
2023/03/04 22:49:10;;;;;;;46.90;19.30;;;;;;;-3.91;96.64;100334.89;219863;1266;139544;-83
2023/03/04 22:54:13;;;;;;;45.30;17.20;;;;;;;-3.95;96.74;100330.36;220327;1266;139567;-83